sensor_id;sensor_type;location;lat;lon;timestamp;temperature;humidity
44833;DHT22;30569;51.252;9.830;2023-12-28T00:00:05;6.80;99.80
44833;DHT22;30569;51.252;9.830;2023-12-28T00:02:31;6.40;99.50
44833;DHT22;30569;51.252;9.830;2023-12-28T00:04:56;6.40;99.40
44833;DHT22;30569;51.252;9.830;2023-12-28T00:07:22;6.40;99.90
44833;DHT22;30569;51.252;9.830;2023-12-28T00:09:47;6.00;99.60
44833;DHT22;30569;51.252;9.830;2023-12-28T00:12:13;6.10;99.90
44833;DHT22;30569;51.252;9.830;2023-12-28T00:14:39;5.80;99.70
44833;DHT22;30569;51.252;9.830;2023-12-28T00:17:04;6.20;99.60
44833;DHT22;30569;51.252;9.830;2023-12-28T00:19:30;5.90;99.70
44833;DHT22;30569;51.252;9.830;2023-12-28T00:21:55;6.50;99.20
44833;DHT22;30569;51.252;9.830;2023-12-28T00:24:21;6.50;99.40
44833;DHT22;30569;51.252;9.830;2023-12-28T00:29:12;6.50;99.00
44833;DHT22;30569;51.252;9.830;2023-12-28T00:31:38;6.50;98.00
44833;DHT22;30569;51.252;9.830;2023-12-28T00:34:03;6.50;98.20
44833;DHT22;30569;51.252;9.830;2023-12-28T00:36:29;6.80;97.70
44833;DHT22;30569;51.252;9.830;2023-12-28T00:38:55;6.90;98.00
44833;DHT22;30569;51.252;9.830;2023-12-28T00:41:20;7.00;97.40
44833;DHT22;30569;51.252;9.830;2023-12-28T00:43:46;7.20;96.90
44833;DHT22;30569;51.252;9.830;2023-12-28T00:46:11;7.10;97.30
44833;DHT22;30569;51.252;9.830;2023-12-28T00:51:03;7.40;97.20
44833;DHT22;30569;51.252;9.830;2023-12-28T00:55:55;7.30;97.10
44833;DHT22;30569;51.252;9.830;2023-12-28T00:58:20;7.30;96.80
44833;DHT22;30569;51.252;9.830;2023-12-28T01:00:46;7.30;96.40
44833;DHT22;30569;51.252;9.830;2023-12-28T01:03:11;7.50;96.80
44833;DHT22;30569;51.252;9.830;2023-12-28T01:05:37;7.60;96.30
44833;DHT22;30569;51.252;9.830;2023-12-28T01:08:03;7.50;96.70
44833;DHT22;30569;51.252;9.830;2023-12-28T01:10:29;7.80;97.00
44833;DHT22;30569;51.252;9.830;2023-12-28T01:12:55;7.60;97.20
44833;DHT22;30569;51.252;9.830;2023-12-28T01:15:20;8.10;97.10
44833;DHT22;30569;51.252;9.830;2023-12-28T01:17:46;7.90;96.30
44833;DHT22;30569;51.252;9.830;2023-12-28T01:20:12;7.70;96.50
44833;DHT22;30569;51.252;9.830;2023-12-28T01:22:38;8.00;96.90
44833;DHT22;30569;51.252;9.830;2023-12-28T01:25:04;7.80;96.50
44833;DHT22;30569;51.252;9.830;2023-12-28T01:27:30;8.10;96.70
44833;DHT22;30569;51.252;9.830;2023-12-28T01:29:55;8.00;96.50
44833;DHT22;30569;51.252;9.830;2023-12-28T01:32:21;8.30;96.00
44833;DHT22;30569;51.252;9.830;2023-12-28T01:37:12;9.30;96.30
44833;DHT22;30569;51.252;9.830;2023-12-28T01:39:38;8.60;96.30
44833;DHT22;30569;51.252;9.830;2023-12-28T01:42:04;8.80;95.80
44833;DHT22;30569;51.252;9.830;2023-12-28T01:44:30;8.10;97.30
44833;DHT22;30569;51.252;9.830;2023-12-28T01:49:23;7.80;98.00
44833;DHT22;30569;51.252;9.830;2023-12-28T01:51:49;8.20;98.60
44833;DHT22;30569;51.252;9.830;2023-12-28T01:54:15;8.10;98.60
44833;DHT22;30569;51.252;9.830;2023-12-28T01:56:42;8.00;99.00
44833;DHT22;30569;51.252;9.830;2023-12-28T01:59:08;8.30;98.80
44833;DHT22;30569;51.252;9.830;2023-12-28T02:01:34;8.20;99.00
44833;DHT22;30569;51.252;9.830;2023-12-28T02:03:59;8.00;99.80
44833;DHT22;30569;51.252;9.830;2023-12-28T02:06:25;8.00;99.80
44833;DHT22;30569;51.252;9.830;2023-12-28T02:08:51;8.10;99.90
44833;DHT22;30569;51.252;9.830;2023-12-28T02:11:18;8.10;99.80
44833;DHT22;30569;51.252;9.830;2023-12-28T02:13:44;8.10;99.60
44833;DHT22;30569;51.252;9.830;2023-12-28T02:16:13;8.20;99.80
44833;DHT22;30569;51.252;9.830;2023-12-28T02:18:47;8.20;99.10
44833;DHT22;30569;51.252;9.830;2023-12-28T02:21:15;8.50;99.90
44833;DHT22;30569;51.252;9.830;2023-12-28T02:23:48;8.40;99.90
44833;DHT22;30569;51.252;9.830;2023-12-28T02:26:17;8.30;99.90
44833;DHT22;30569;51.252;9.830;2023-12-28T02:28:47;8.20;99.90
44833;DHT22;30569;51.252;9.830;2023-12-28T02:31:39;7.90;99.90
44833;DHT22;30569;51.252;9.830;2023-12-28T02:34:19;7.90;99.90
44833;DHT22;30569;51.252;9.830;2023-12-28T02:36:47;8.10;99.90
44833;DHT22;30569;51.252;9.830;2023-12-28T02:39:14;8.10;99.90
44833;DHT22;30569;51.252;9.830;2023-12-28T02:41:43;8.30;99.90
44833;DHT22;30569;51.252;9.830;2023-12-28T02:44:09;8.10;99.90
44833;DHT22;30569;51.252;9.830;2023-12-28T02:51:27;7.90;99.90
44833;DHT22;30569;51.252;9.830;2023-12-28T02:53:52;8.20;99.90
44833;DHT22;30569;51.252;9.830;2023-12-28T02:56:18;8.50;99.90
44833;DHT22;30569;51.252;9.830;2023-12-28T02:58:43;8.30;99.90
44833;DHT22;30569;51.252;9.830;2023-12-28T03:01:09;8.50;99.90
44833;DHT22;30569;51.252;9.830;2023-12-28T03:06:00;8.20;99.90
44833;DHT22;30569;51.252;9.830;2023-12-28T03:08:26;8.80;99.90
44833;DHT22;30569;51.252;9.830;2023-12-28T03:10:51;8.40;99.90
44833;DHT22;30569;51.252;9.830;2023-12-28T03:13:18;8.50;99.90
44833;DHT22;30569;51.252;9.830;2023-12-28T03:15:43;8.10;99.90
44833;DHT22;30569;51.252;9.830;2023-12-28T03:18:09;7.70;99.90
44833;DHT22;30569;51.252;9.830;2023-12-28T03:20:35;8.10;99.90
44833;DHT22;30569;51.252;9.830;2023-12-28T03:23:00;8.20;99.90
44833;DHT22;30569;51.252;9.830;2023-12-28T03:27:52;7.90;99.90
44833;DHT22;30569;51.252;9.830;2023-12-28T03:30:17;7.90;99.90
44833;DHT22;30569;51.252;9.830;2023-12-28T03:32:43;8.00;99.90
44833;DHT22;30569;51.252;9.830;2023-12-28T03:35:08;7.80;99.90
44833;DHT22;30569;51.252;9.830;2023-12-28T03:37:34;8.30;99.90
44833;DHT22;30569;51.252;9.830;2023-12-28T03:40:00;8.10;99.90
44833;DHT22;30569;51.252;9.830;2023-12-28T03:42:26;8.30;99.90
44833;DHT22;30569;51.252;9.830;2023-12-28T03:44:51;8.70;99.90
44833;DHT22;30569;51.252;9.830;2023-12-28T03:47:17;8.40;99.90
44833;DHT22;30569;51.252;9.830;2023-12-28T03:49:43;8.60;99.90
44833;DHT22;30569;51.252;9.830;2023-12-28T03:52:08;8.20;99.90
44833;DHT22;30569;51.252;9.830;2023-12-28T03:54:34;8.50;99.90
44833;DHT22;30569;51.252;9.830;2023-12-28T03:56:59;8.80;99.90
44833;DHT22;30569;51.252;9.830;2023-12-28T03:59:27;7.90;99.90
44833;DHT22;30569;51.252;9.830;2023-12-28T04:04:18;7.70;99.90
44833;DHT22;30569;51.252;9.830;2023-12-28T04:06:44;7.90;99.90
44833;DHT22;30569;51.252;9.830;2023-12-28T04:09:13;7.50;99.90
44833;DHT22;30569;51.252;9.830;2023-12-28T04:11:39;8.10;99.90
44833;DHT22;30569;51.252;9.830;2023-12-28T04:14:04;8.40;99.90
44833;DHT22;30569;51.252;9.830;2023-12-28T04:16:30;8.20;99.90
44833;DHT22;30569;51.252;9.830;2023-12-28T04:18:56;9.40;99.90
44833;DHT22;30569;51.252;9.830;2023-12-28T04:21:21;8.30;99.90
44833;DHT22;30569;51.252;9.830;2023-12-28T04:23:47;8.60;99.90
44833;DHT22;30569;51.252;9.830;2023-12-28T04:26:12;8.30;99.90
44833;DHT22;30569;51.252;9.830;2023-12-28T04:28:38;8.70;99.90
44833;DHT22;30569;51.252;9.830;2023-12-28T04:31:05;8.40;99.90
44833;DHT22;30569;51.252;9.830;2023-12-28T04:33:31;8.60;99.90
44833;DHT22;30569;51.252;9.830;2023-12-28T04:36:00;8.20;99.90
44833;DHT22;30569;51.252;9.830;2023-12-28T04:38:26;8.40;99.90
44833;DHT22;30569;51.252;9.830;2023-12-28T04:40:52;8.20;99.90
44833;DHT22;30569;51.252;9.830;2023-12-28T04:43:18;8.30;99.90
44833;DHT22;30569;51.252;9.830;2023-12-28T04:48:09;7.90;99.90
44833;DHT22;30569;51.252;9.830;2023-12-28T04:50:35;7.50;99.90
44833;DHT22;30569;51.252;9.830;2023-12-28T04:53:00;7.80;99.90
44833;DHT22;30569;51.252;9.830;2023-12-28T04:55:26;7.90;99.90
44833;DHT22;30569;51.252;9.830;2023-12-28T04:57:52;7.50;99.90
44833;DHT22;30569;51.252;9.830;2023-12-28T05:00:17;7.50;99.90
44833;DHT22;30569;51.252;9.830;2023-12-28T05:05:12;7.80;99.90
44833;DHT22;30569;51.252;9.830;2023-12-28T05:07:37;8.10;99.90
44833;DHT22;30569;51.252;9.830;2023-12-28T05:10:03;8.10;99.90
44833;DHT22;30569;51.252;9.830;2023-12-28T05:12:29;8.00;99.90
44833;DHT22;30569;51.252;9.830;2023-12-28T05:14:55;8.10;99.90
44833;DHT22;30569;51.252;9.830;2023-12-28T05:17:20;8.10;99.90
44833;DHT22;30569;51.252;9.830;2023-12-28T05:19:46;8.10;99.90
44833;DHT22;30569;51.252;9.830;2023-12-28T05:22:12;7.50;99.90
44833;DHT22;30569;51.252;9.830;2023-12-28T05:27:04;7.60;99.90
44833;DHT22;30569;51.252;9.830;2023-12-28T05:29:29;7.40;99.90
44833;DHT22;30569;51.252;9.830;2023-12-28T05:31:56;7.40;99.90
44833;DHT22;30569;51.252;9.830;2023-12-28T05:34:21;7.70;99.90
44833;DHT22;30569;51.252;9.830;2023-12-28T05:39:13;7.20;99.90
44833;DHT22;30569;51.252;9.830;2023-12-28T05:41:39;7.30;99.90
44833;DHT22;30569;51.252;9.830;2023-12-28T05:44:05;7.50;99.90
44833;DHT22;30569;51.252;9.830;2023-12-28T05:46:31;7.30;99.90
44833;DHT22;30569;51.252;9.830;2023-12-28T05:48:57;7.30;99.90
44833;DHT22;30569;51.252;9.830;2023-12-28T05:53:48;7.20;99.90
44833;DHT22;30569;51.252;9.830;2023-12-28T05:56:14;6.90;99.90
44833;DHT22;30569;51.252;9.830;2023-12-28T05:58:40;7.10;99.90
44833;DHT22;30569;51.252;9.830;2023-12-28T06:01:06;7.20;99.90
44833;DHT22;30569;51.252;9.830;2023-12-28T06:05:58;7.40;99.90
44833;DHT22;30569;51.252;9.830;2023-12-28T06:08:23;7.10;99.90
44833;DHT22;30569;51.252;9.830;2023-12-28T06:13:15;7.10;99.90
44833;DHT22;30569;51.252;9.830;2023-12-28T06:20:33;7.00;99.90
44833;DHT22;30569;51.252;9.830;2023-12-28T06:25:24;7.10;99.90
44833;DHT22;30569;51.252;9.830;2023-12-28T06:27:50;7.00;99.90
44833;DHT22;30569;51.252;9.830;2023-12-28T06:30:16;7.00;99.90
44833;DHT22;30569;51.252;9.830;2023-12-28T06:32:41;6.90;99.90
44833;DHT22;30569;51.252;9.830;2023-12-28T06:35:07;7.10;99.90
44833;DHT22;30569;51.252;9.830;2023-12-28T06:37:34;6.80;99.90
44833;DHT22;30569;51.252;9.830;2023-12-28T06:39:59;7.00;99.90
44833;DHT22;30569;51.252;9.830;2023-12-28T06:42:25;6.80;99.90
44833;DHT22;30569;51.252;9.830;2023-12-28T06:44:50;6.80;99.90
44833;DHT22;30569;51.252;9.830;2023-12-28T06:47:16;6.90;99.90
44833;DHT22;30569;51.252;9.830;2023-12-28T06:49:42;7.10;99.90
44833;DHT22;30569;51.252;9.830;2023-12-28T06:52:07;7.50;99.90
44833;DHT22;30569;51.252;9.830;2023-12-28T06:54:33;7.00;99.90
44833;DHT22;30569;51.252;9.830;2023-12-28T06:56:59;6.60;99.90
44833;DHT22;30569;51.252;9.830;2023-12-28T06:59:24;6.80;99.90
44833;DHT22;30569;51.252;9.830;2023-12-28T07:01:50;6.90;99.90
44833;DHT22;30569;51.252;9.830;2023-12-28T07:04:16;6.80;99.90
44833;DHT22;30569;51.252;9.830;2023-12-28T07:06:42;6.90;99.90
44833;DHT22;30569;51.252;9.830;2023-12-28T07:09:07;7.00;99.90
44833;DHT22;30569;51.252;9.830;2023-12-28T07:11:33;6.80;99.90
44833;DHT22;30569;51.252;9.830;2023-12-28T07:13:58;6.90;99.90
44833;DHT22;30569;51.252;9.830;2023-12-28T07:16:24;6.90;99.90
44833;DHT22;30569;51.252;9.830;2023-12-28T07:18:50;7.10;99.90
44833;DHT22;30569;51.252;9.830;2023-12-28T07:21:15;7.00;99.90
44833;DHT22;30569;51.252;9.830;2023-12-28T07:23:41;7.00;99.90
44833;DHT22;30569;51.252;9.830;2023-12-28T07:26:07;6.80;99.90
44833;DHT22;30569;51.252;9.830;2023-12-28T07:28:33;7.00;99.90
44833;DHT22;30569;51.252;9.830;2023-12-28T07:33:25;7.10;99.90
44833;DHT22;30569;51.252;9.830;2023-12-28T07:38:16;7.10;99.90
44833;DHT22;30569;51.252;9.830;2023-12-28T07:40:42;7.20;99.90
44833;DHT22;30569;51.252;9.830;2023-12-28T07:45:34;7.40;99.90
44833;DHT22;30569;51.252;9.830;2023-12-28T07:48:00;7.30;99.90
44833;DHT22;30569;51.252;9.830;2023-12-28T07:55:18;7.30;99.90
44833;DHT22;30569;51.252;9.830;2023-12-28T07:57:44;7.40;99.90
44833;DHT22;30569;51.252;9.830;2023-12-28T08:00:11;7.20;99.90
44833;DHT22;30569;51.252;9.830;2023-12-28T08:02:37;7.10;99.90
44833;DHT22;30569;51.252;9.830;2023-12-28T08:05:03;7.10;99.90
44833;DHT22;30569;51.252;9.830;2023-12-28T08:07:29;7.30;99.90
44833;DHT22;30569;51.252;9.830;2023-12-28T08:09:55;7.20;99.90
44833;DHT22;30569;51.252;9.830;2023-12-28T08:12:20;7.20;99.90
44833;DHT22;30569;51.252;9.830;2023-12-28T08:14:46;7.20;99.90
44833;DHT22;30569;51.252;9.830;2023-12-28T08:17:12;7.40;99.90
44833;DHT22;30569;51.252;9.830;2023-12-28T08:22:04;7.60;99.90
44833;DHT22;30569;51.252;9.830;2023-12-28T08:24:30;7.50;99.90
44833;DHT22;30569;51.252;9.830;2023-12-28T08:26:55;7.30;99.90
44833;DHT22;30569;51.252;9.830;2023-12-28T08:31:50;7.70;99.90
44833;DHT22;30569;51.252;9.830;2023-12-28T08:39:08;7.30;99.90
44833;DHT22;30569;51.252;9.830;2023-12-28T08:41:33;7.40;99.90
44833;DHT22;30569;51.252;9.830;2023-12-28T08:43:59;7.40;99.90
44833;DHT22;30569;51.252;9.830;2023-12-28T08:51:17;7.30;99.90
44833;DHT22;30569;51.252;9.830;2023-12-28T08:53:43;7.60;99.90
44833;DHT22;30569;51.252;9.830;2023-12-28T08:56:19;8.10;99.90
44833;DHT22;30569;51.252;9.830;2023-12-28T08:58:45;8.40;99.90
44833;DHT22;30569;51.252;9.830;2023-12-28T09:01:20;8.10;99.90
44833;DHT22;30569;51.252;9.830;2023-12-28T09:03:48;8.40;99.90
44833;DHT22;30569;51.252;9.830;2023-12-28T09:06:14;8.10;99.90
44833;DHT22;30569;51.252;9.830;2023-12-28T09:11:12;8.30;99.90
44833;DHT22;30569;51.252;9.830;2023-12-28T09:13:38;8.50;99.90
44833;DHT22;30569;51.252;9.830;2023-12-28T09:16:05;8.30;99.90
44833;DHT22;30569;51.252;9.830;2023-12-28T09:18:31;7.80;99.90
44833;DHT22;30569;51.252;9.830;2023-12-28T09:20:56;7.70;99.90
44833;DHT22;30569;51.252;9.830;2023-12-28T09:23:22;7.90;99.90
44833;DHT22;30569;51.252;9.830;2023-12-28T09:25:47;7.80;99.90
44833;DHT22;30569;51.252;9.830;2023-12-28T09:30:40;8.30;99.90
44833;DHT22;30569;51.252;9.830;2023-12-28T09:33:06;8.00;99.90
44833;DHT22;30569;51.252;9.830;2023-12-28T09:35:31;7.80;99.90
44833;DHT22;30569;51.252;9.830;2023-12-28T09:37:57;7.90;99.90
44833;DHT22;30569;51.252;9.830;2023-12-28T09:40:24;7.90;99.90
44833;DHT22;30569;51.252;9.830;2023-12-28T09:43:26;8.00;99.90
44833;DHT22;30569;51.252;9.830;2023-12-28T09:48:21;8.20;99.90
44833;DHT22;30569;51.252;9.830;2023-12-28T09:50:54;8.60;99.90
44833;DHT22;30569;51.252;9.830;2023-12-28T09:53:24;8.00;99.90
44833;DHT22;30569;51.252;9.830;2023-12-28T09:58:21;8.10;99.90
44833;DHT22;30569;51.252;9.830;2023-12-28T10:00:49;8.20;99.90
44833;DHT22;30569;51.252;9.830;2023-12-28T10:10:34;8.10;99.90
44833;DHT22;30569;51.252;9.830;2023-12-28T10:15:26;8.00;99.90
44833;DHT22;30569;51.252;9.830;2023-12-28T10:17:54;8.40;99.90
44833;DHT22;30569;51.252;9.830;2023-12-28T10:22:46;8.20;99.90
44833;DHT22;30569;51.252;9.830;2023-12-28T10:25:12;8.10;99.90
44833;DHT22;30569;51.252;9.830;2023-12-28T10:27:42;8.20;99.90
44833;DHT22;30569;51.252;9.830;2023-12-28T10:30:08;8.70;99.90
44833;DHT22;30569;51.252;9.830;2023-12-28T10:32:35;8.40;99.90
44833;DHT22;30569;51.252;9.830;2023-12-28T10:37:31;8.60;99.90
44833;DHT22;30569;51.252;9.830;2023-12-28T10:39:59;8.40;99.90
44833;DHT22;30569;51.252;9.830;2023-12-28T10:42:31;8.60;99.90
44833;DHT22;30569;51.252;9.830;2023-12-28T10:45:06;8.90;99.90
44833;DHT22;30569;51.252;9.830;2023-12-28T10:47:38;9.10;99.90
44833;DHT22;30569;51.252;9.830;2023-12-28T10:50:05;9.30;99.90
44833;DHT22;30569;51.252;9.830;2023-12-28T10:52:32;9.70;99.90
44833;DHT22;30569;51.252;9.830;2023-12-28T10:57:33;9.70;99.90
44833;DHT22;30569;51.252;9.830;2023-12-28T11:00:07;9.30;99.90
44833;DHT22;30569;51.252;9.830;2023-12-28T11:02:44;9.50;99.90
44833;DHT22;30569;51.252;9.830;2023-12-28T11:05:12;9.70;99.90
44833;DHT22;30569;51.252;9.830;2023-12-28T11:07:39;9.90;99.90
44833;DHT22;30569;51.252;9.830;2023-12-28T11:10:07;9.30;99.90
44833;DHT22;30569;51.252;9.830;2023-12-28T11:12:33;9.50;99.90
44833;DHT22;30569;51.252;9.830;2023-12-28T11:14:59;9.20;99.90
44833;DHT22;30569;51.252;9.830;2023-12-28T11:17:27;9.10;99.90
44833;DHT22;30569;51.252;9.830;2023-12-28T11:22:21;9.10;99.90
44833;DHT22;30569;51.252;9.830;2023-12-28T11:24:47;9.50;99.90
44833;DHT22;30569;51.252;9.830;2023-12-28T11:27:13;9.40;99.90
44833;DHT22;30569;51.252;9.830;2023-12-28T11:32:05;9.10;99.90
44833;DHT22;30569;51.252;9.830;2023-12-28T11:34:32;9.20;99.90
44833;DHT22;30569;51.252;9.830;2023-12-28T11:37:04;9.20;99.90
44833;DHT22;30569;51.252;9.830;2023-12-28T11:39:31;9.30;99.90
44833;DHT22;30569;51.252;9.830;2023-12-28T11:44:40;9.20;99.90
44833;DHT22;30569;51.252;9.830;2023-12-28T11:47:13;9.10;99.90
44833;DHT22;30569;51.252;9.830;2023-12-28T11:49:39;9.10;99.90
44833;DHT22;30569;51.252;9.830;2023-12-28T11:52:25;9.10;99.90
44833;DHT22;30569;51.252;9.830;2023-12-28T11:54:51;8.80;99.90
44833;DHT22;30569;51.252;9.830;2023-12-28T11:59:43;9.20;99.90
44833;DHT22;30569;51.252;9.830;2023-12-28T12:02:09;8.70;99.90
44833;DHT22;30569;51.252;9.830;2023-12-28T12:04:36;8.90;99.90
44833;DHT22;30569;51.252;9.830;2023-12-28T12:07:03;8.70;99.90
44833;DHT22;30569;51.252;9.830;2023-12-28T12:12:02;8.60;99.90
44833;DHT22;30569;51.252;9.830;2023-12-28T12:14:29;8.80;99.90
44833;DHT22;30569;51.252;9.830;2023-12-28T12:16:57;8.70;99.90
44833;DHT22;30569;51.252;9.830;2023-12-28T12:19:24;8.80;99.90
44833;DHT22;30569;51.252;9.830;2023-12-28T12:21:52;8.70;99.90
44833;DHT22;30569;51.252;9.830;2023-12-28T12:24:18;8.50;99.90
44833;DHT22;30569;51.252;9.830;2023-12-28T12:26:45;8.80;99.90
44833;DHT22;30569;51.252;9.830;2023-12-28T12:29:11;8.60;99.90
44833;DHT22;30569;51.252;9.830;2023-12-28T12:31:37;8.80;99.90
44833;DHT22;30569;51.252;9.830;2023-12-28T12:34:10;9.00;99.90
44833;DHT22;30569;51.252;9.830;2023-12-28T12:36:36;9.10;99.90
44833;DHT22;30569;51.252;9.830;2023-12-28T12:39:02;8.70;99.90
44833;DHT22;30569;51.252;9.830;2023-12-28T12:41:32;8.80;99.90
44833;DHT22;30569;51.252;9.830;2023-12-28T12:43:58;9.00;99.90
44833;DHT22;30569;51.252;9.830;2023-12-28T12:48:57;9.10;99.90
44833;DHT22;30569;51.252;9.830;2023-12-28T12:51:24;9.10;99.90
44833;DHT22;30569;51.252;9.830;2023-12-28T12:53:55;9.00;99.90
44833;DHT22;30569;51.252;9.830;2023-12-28T12:56:20;9.30;99.90
44833;DHT22;30569;51.252;9.830;2023-12-28T12:58:46;9.10;99.90
44833;DHT22;30569;51.252;9.830;2023-12-28T13:01:12;9.40;99.90
44833;DHT22;30569;51.252;9.830;2023-12-28T13:03:37;9.10;99.90
44833;DHT22;30569;51.252;9.830;2023-12-28T13:06:04;9.10;99.90
44833;DHT22;30569;51.252;9.830;2023-12-28T13:13:22;9.10;99.90
44833;DHT22;30569;51.252;9.830;2023-12-28T13:15:47;8.90;99.90
44833;DHT22;30569;51.252;9.830;2023-12-28T13:18:13;8.80;99.90
44833;DHT22;30569;51.252;9.830;2023-12-28T13:20:38;9.10;99.90
44833;DHT22;30569;51.252;9.830;2023-12-28T13:23:04;9.60;99.90
44833;DHT22;30569;51.252;9.830;2023-12-28T13:25:30;8.90;99.90
44833;DHT22;30569;51.252;9.830;2023-12-28T13:27:55;9.30;99.90
44833;DHT22;30569;51.252;9.830;2023-12-28T13:30:21;9.20;99.90
44833;DHT22;30569;51.252;9.830;2023-12-28T13:32:47;9.30;99.90
44833;DHT22;30569;51.252;9.830;2023-12-28T13:35:13;9.50;99.90
44833;DHT22;30569;51.252;9.830;2023-12-28T13:37:39;9.10;99.90
44833;DHT22;30569;51.252;9.830;2023-12-28T13:40:06;9.20;99.90
44833;DHT22;30569;51.252;9.830;2023-12-28T13:44:58;9.20;99.90
44833;DHT22;30569;51.252;9.830;2023-12-28T13:47:23;8.90;99.90
44833;DHT22;30569;51.252;9.830;2023-12-28T13:49:49;8.80;99.90
44833;DHT22;30569;51.252;9.830;2023-12-28T13:52:15;8.80;99.90
44833;DHT22;30569;51.252;9.830;2023-12-28T13:54:40;8.70;99.90
44833;DHT22;30569;51.252;9.830;2023-12-28T13:57:07;8.60;99.90
44833;DHT22;30569;51.252;9.830;2023-12-28T13:59:32;8.70;99.90
44833;DHT22;30569;51.252;9.830;2023-12-28T14:01:58;8.80;99.90
44833;DHT22;30569;51.252;9.830;2023-12-28T14:04:24;8.70;99.90
44833;DHT22;30569;51.252;9.830;2023-12-28T14:11:46;8.70;99.90
44833;DHT22;30569;51.252;9.830;2023-12-28T14:16:38;8.80;99.90
44833;DHT22;30569;51.252;9.830;2023-12-28T14:21:35;8.80;99.90
44833;DHT22;30569;51.252;9.830;2023-12-28T14:24:01;8.60;99.90
44833;DHT22;30569;51.252;9.830;2023-12-28T14:26:27;8.60;99.90
44833;DHT22;30569;51.252;9.830;2023-12-28T14:31:19;8.70;99.90
44833;DHT22;30569;51.252;9.830;2023-12-28T14:33:45;8.90;99.90
44833;DHT22;30569;51.252;9.830;2023-12-28T14:36:37;8.70;99.90
44833;DHT22;30569;51.252;9.830;2023-12-28T14:39:05;8.70;99.90
44833;DHT22;30569;51.252;9.830;2023-12-28T14:41:31;8.50;99.90
44833;DHT22;30569;51.252;9.830;2023-12-28T14:43:56;8.40;99.90
44833;DHT22;30569;51.252;9.830;2023-12-28T14:46:23;8.40;99.90
44833;DHT22;30569;51.252;9.830;2023-12-28T14:48:49;8.50;99.90
44833;DHT22;30569;51.252;9.830;2023-12-28T14:51:15;8.60;99.90
44833;DHT22;30569;51.252;9.830;2023-12-28T14:53:40;9.00;99.90
44833;DHT22;30569;51.252;9.830;2023-12-28T14:56:06;8.50;99.90
44833;DHT22;30569;51.252;9.830;2023-12-28T14:58:31;8.60;99.90
44833;DHT22;30569;51.252;9.830;2023-12-28T15:00:57;8.60;99.90
44833;DHT22;30569;51.252;9.830;2023-12-28T15:05:49;8.30;99.90
44833;DHT22;30569;51.252;9.830;2023-12-28T15:08:14;8.20;99.90
44833;DHT22;30569;51.252;9.830;2023-12-28T15:10:40;7.90;99.90
44833;DHT22;30569;51.252;9.830;2023-12-28T15:13:06;8.00;99.90
44833;DHT22;30569;51.252;9.830;2023-12-28T15:15:32;7.70;99.90
44833;DHT22;30569;51.252;9.830;2023-12-28T15:17:58;7.90;99.90
44833;DHT22;30569;51.252;9.830;2023-12-28T15:20:24;7.90;99.90
44833;DHT22;30569;51.252;9.830;2023-12-28T15:22:52;7.70;99.90
44833;DHT22;30569;51.252;9.830;2023-12-28T15:25:18;7.90;99.90
44833;DHT22;30569;51.252;9.830;2023-12-28T15:30:10;7.70;99.90
44833;DHT22;30569;51.252;9.830;2023-12-28T15:32:38;7.80;99.90
44833;DHT22;30569;51.252;9.830;2023-12-28T15:35:05;7.70;99.90
44833;DHT22;30569;51.252;9.830;2023-12-28T15:37:32;7.90;99.90
44833;DHT22;30569;51.252;9.830;2023-12-28T15:39:57;7.80;99.90
44833;DHT22;30569;51.252;9.830;2023-12-28T15:44:49;7.60;99.90
44833;DHT22;30569;51.252;9.830;2023-12-28T15:47:15;7.70;99.90
44833;DHT22;30569;51.252;9.830;2023-12-28T15:52:06;7.70;99.90
44833;DHT22;30569;51.252;9.830;2023-12-28T15:54:33;7.90;99.90
44833;DHT22;30569;51.252;9.830;2023-12-28T15:59:24;7.80;99.90
44833;DHT22;30569;51.252;9.830;2023-12-28T16:01:50;7.80;99.90
44833;DHT22;30569;51.252;9.830;2023-12-28T16:04:16;7.60;99.90
44833;DHT22;30569;51.252;9.830;2023-12-28T16:06:41;7.80;99.90
44833;DHT22;30569;51.252;9.830;2023-12-28T16:09:07;8.00;99.90
44833;DHT22;30569;51.252;9.830;2023-12-28T16:11:33;8.10;99.90
44833;DHT22;30569;51.252;9.830;2023-12-28T16:13:58;7.50;99.90
44833;DHT22;30569;51.252;9.830;2023-12-28T16:16:24;7.50;99.90
44833;DHT22;30569;51.252;9.830;2023-12-28T16:18:50;7.50;99.90
44833;DHT22;30569;51.252;9.830;2023-12-28T16:21:16;7.60;99.90
44833;DHT22;30569;51.252;9.830;2023-12-28T16:23:42;7.50;99.90
44833;DHT22;30569;51.252;9.830;2023-12-28T16:26:08;7.50;99.90
44833;DHT22;30569;51.252;9.830;2023-12-28T16:33:28;7.60;99.90
44833;DHT22;30569;51.252;9.830;2023-12-28T16:43:14;7.50;99.90
44833;DHT22;30569;51.252;9.830;2023-12-28T16:48:06;7.50;99.90
44833;DHT22;30569;51.252;9.830;2023-12-28T16:50:37;7.60;99.90
44833;DHT22;30569;51.252;9.830;2023-12-28T16:55:31;7.90;99.90
44833;DHT22;30569;51.252;9.830;2023-12-28T17:05:18;7.60;99.90
44833;DHT22;30569;51.252;9.830;2023-12-28T17:10:10;7.60;99.90
44833;DHT22;30569;51.252;9.830;2023-12-28T17:12:40;7.80;99.90
44833;DHT22;30569;51.252;9.830;2023-12-28T17:15:09;7.50;99.90
44833;DHT22;30569;51.252;9.830;2023-12-28T17:17:37;7.70;99.90
44833;DHT22;30569;51.252;9.830;2023-12-28T17:20:04;7.60;99.90
44833;DHT22;30569;51.252;9.830;2023-12-28T17:22:36;7.50;99.90
44833;DHT22;30569;51.252;9.830;2023-12-28T17:28:12;7.50;99.90
44833;DHT22;30569;51.252;9.830;2023-12-28T17:30:45;7.90;99.90
44833;DHT22;30569;51.252;9.830;2023-12-28T17:33:12;7.60;99.90
44833;DHT22;30569;51.252;9.830;2023-12-28T17:35:42;8.40;99.90
44833;DHT22;30569;51.252;9.830;2023-12-28T17:38:08;7.50;99.90
44833;DHT22;30569;51.252;9.830;2023-12-28T17:40:34;7.60;99.90
44833;DHT22;30569;51.252;9.830;2023-12-28T17:43:07;8.00;99.90
44833;DHT22;30569;51.252;9.830;2023-12-28T17:46:01;7.60;99.90
44833;DHT22;30569;51.252;9.830;2023-12-28T17:48:33;7.50;99.90
44833;DHT22;30569;51.252;9.830;2023-12-28T17:51:04;7.40;99.90
44833;DHT22;30569;51.252;9.830;2023-12-28T17:53:30;7.10;99.90
44833;DHT22;30569;51.252;9.830;2023-12-28T17:58:22;7.50;99.90
44833;DHT22;30569;51.252;9.830;2023-12-28T18:00:47;7.30;99.90
44833;DHT22;30569;51.252;9.830;2023-12-28T18:03:13;7.50;99.90
44833;DHT22;30569;51.252;9.830;2023-12-28T18:05:39;7.20;99.90
44833;DHT22;30569;51.252;9.830;2023-12-28T18:08:05;7.20;99.90
44833;DHT22;30569;51.252;9.830;2023-12-28T18:10:31;7.60;99.90
44833;DHT22;30569;51.252;9.830;2023-12-28T18:12:57;7.60;99.90
44833;DHT22;30569;51.252;9.830;2023-12-28T18:15:22;7.90;99.90
44833;DHT22;30569;51.252;9.830;2023-12-28T18:17:48;7.70;99.90
44833;DHT22;30569;51.252;9.830;2023-12-28T18:20:14;7.80;99.90
44833;DHT22;30569;51.252;9.830;2023-12-28T18:22:39;8.20;99.90
44833;DHT22;30569;51.252;9.830;2023-12-28T18:25:05;7.70;99.90
44833;DHT22;30569;51.252;9.830;2023-12-28T18:27:31;8.10;99.90
44833;DHT22;30569;51.252;9.830;2023-12-28T18:29:57;7.90;99.90
44833;DHT22;30569;51.252;9.830;2023-12-28T18:32:22;7.90;99.90
44833;DHT22;30569;51.252;9.830;2023-12-28T18:34:48;7.60;99.90
44833;DHT22;30569;51.252;9.830;2023-12-28T18:37:16;7.90;99.90
44833;DHT22;30569;51.252;9.830;2023-12-28T18:39:42;7.60;99.90
44833;DHT22;30569;51.252;9.830;2023-12-28T18:42:09;7.70;99.90